• Join FlightAware (Why Join?)
  • Login
  • US Flag 
12:11AM EDT


 

Airport Tracker/Info


-or-


 

Live Flight TrackerFlight Track Log ✈ ANA57 ✈ 10-May-2013 ✈ RJTT / HND - RJCC / CTS

Flight Track Log - Related Links

Times and Time Zones

All times are in EDT time to prevent confusion due to time zone crossing. See the ANA57 flight status page for this flight to view local times or setup timezone preferences in your user account.

Time Position Orientation Groundspeed Altitude Reporting Facility
EDT Latitude Longitude Course Direction KTS MPH feet Rate Location/Type
08:46PM 36.0117 139.8902 11° North  Level Estimated
08:47PM 36.1266 139.9180 11° North  Level Estimated
08:48PM 36.2415 139.9459 11° North  Level Estimated
08:49PM 36.3563 139.9739 11° North  Level Estimated
08:50PM 36.4711 140.0020 11° North  Level Estimated
08:51PM 36.5860 140.0301 11° North  Level Estimated
08:52PM 36.7008 140.0583 11° North  Level Estimated
08:53PM 36.8156 140.0867 11° North  Level Estimated
08:54PM 36.9304 140.1151 11° North  Level Estimated
08:55PM 37.0452 140.1436 11° North  Level Estimated
08:56PM 37.1600 140.1721 11° North  Level Estimated
08:57PM 37.2748 140.2008 11° North  Level Estimated
08:58PM 37.3896 140.2296 11° North  Level Estimated
08:59PM 37.5044 140.2584 11° North  Level Estimated
09:00PM 37.6191 140.2873 11° North  Level Estimated
09:01PM 37.7339 140.3163 11° North  Level Estimated
09:02PM 37.8487 140.3454 11° North  Level Estimated
09:03PM 37.9634 140.3746 11° North  Level Estimated
09:04PM 38.0782 140.4039 11° North  Level Estimated
09:05PM 38.1929 140.4333 11° North  Level Estimated
09:06PM 38.3076 140.4628 11° North  Level Estimated
09:07PM 38.4223 140.4924 11° North  Level Estimated
09:08PM 38.5370 140.5220 11° North  Level Estimated
09:09PM 38.6517 140.5518 11° North  Level Estimated
09:10PM 38.7664 140.5816 11° North  Level Estimated
09:11PM 38.8811 140.6116 11° North  Level Estimated
09:12PM 38.9958 140.6416 12° North  Level Estimated
09:13PM 39.1105 140.6718 12° North  Level Estimated
09:14PM 39.2252 140.7020 12° North  Level Estimated
09:15PM 39.3398 140.7323 12° North  Level Estimated
09:16PM 39.4545 140.7628 12° North  Level Estimated
09:17PM 39.5691 140.7933 12° North  Level Estimated
09:18PM 39.6837 140.8240 12° North  Level Estimated
09:19PM 39.7984 140.8547 12° North  Level Estimated
09:20PM 39.9130 140.8856 12° North  Level Estimated
09:21PM 40.0276 140.9165 12° North  Level Estimated
09:22PM 40.1422 140.9476 12° North  Level Estimated
09:23PM 40.2568 140.9787 12° North  Level Estimated
09:24PM 40.3714 141.0100 12° North  Level Estimated
09:25PM 40.4859 141.0414 12° North  Level Estimated
09:26PM 40.6005 141.0728 12° North  Level Estimated
09:27PM 40.7151 141.1044 12° North  Level Estimated
09:28PM 40.8296 141.1361 12° North  Level Estimated
09:29PM 40.9442 141.1679 12° North  Level Estimated
09:30PM 41.0587 141.1998 12° North  Level Estimated
09:31PM 41.1732 141.2319 12° North  Level Estimated
09:32PM 41.2877 141.2640 12° North  Level Estimated
09:33PM 41.4022 141.2962 12° North  Level Estimated
09:34PM 41.5167 141.3286 12° North  Level Estimated
09:35PM 41.6312 141.3611 12° North  Level Estimated
09:36PM 41.7457 141.3937 12° North  Level Estimated
09:37PM 41.8602 141.4264 12° North  Level Estimated
09:38PM 41.9746 141.4592 12° North  Level Estimated
09:39PM 42.0891 141.4922 12° North  Level Estimated
09:40PM 42.2035 141.5253 12° North  Level Estimated
09:41PM 42.3180 141.5584 12° North  Level Estimated
09:42PM 42.4324 141.5918 12° North  Level Estimated
09:43PM 42.5468 141.6252 12° North  Level Estimated
09:44PM 42.6612 141.6587 12° North  Level Estimated
09:45PM 42.7752 141.6923 12° North  Level Estimated
09:46PM 42.7752 141.6923 90° East  Level Estimated
09:47PM 42.7752 141.6923 90° East  Level Estimated
09:48PM 42.7752 141.6923 90° East  Level Estimated
09:49PM 42.7752 141.6923 90° East  Level Estimated
09:50PM 42.7752 141.6923 90° East  Level Estimated
09:51PM 42.7752 141.6923 90° East  Level Estimated
09:52PM 42.7752 141.6923 90° East  Level Estimated
09:53PM 42.7752 141.6923 90° East  Level Estimated
09:54PM 42.7752 141.6923 90° East  Level Estimated
09:55PM 42.7752 141.6923 90° East  Level Estimated
09:56PM 42.7752 141.6923 90° East  Level Estimated
09:57PM 42.7752 141.6923 90° East  Level Estimated
09:58PM 42.7752 141.6923 90° East  Level Estimated
09:59PM 42.7752 141.6923 90° East  Level Estimated
10:00PM 42.7752 141.6923 90° East  Level Estimated
10:01PM 42.7752 141.6923 90° East  Level Estimated